sensor_id;sensor_type;location;lat;lon;timestamp;temperature;humidity
64143;DHT22;50437;51.970;5.904;2023-07-29T00:01:45;18.40;99.90
64143;DHT22;50437;51.970;5.904;2023-07-29T00:04:11;18.50;99.90
64143;DHT22;50437;51.970;5.904;2023-07-29T00:06:37;18.40;99.90
64143;DHT22;50437;51.970;5.904;2023-07-29T00:09:03;18.40;99.90
64143;DHT22;50437;51.970;5.904;2023-07-29T00:11:29;18.30;99.90
64143;DHT22;50437;51.970;5.904;2023-07-29T00:13:56;18.40;99.90
64143;DHT22;50437;51.970;5.904;2023-07-29T00:16:22;18.40;99.90
64143;DHT22;50437;51.970;5.904;2023-07-29T00:18:48;18.40;99.90
64143;DHT22;50437;51.970;5.904;2023-07-29T00:21:14;18.30;99.90
64143;DHT22;50437;51.970;5.904;2023-07-29T00:23:40;18.20;99.90
64143;DHT22;50437;51.970;5.904;2023-07-29T00:26:06;18.20;99.90
64143;DHT22;50437;51.970;5.904;2023-07-29T00:28:32;18.20;99.90
64143;DHT22;50437;51.970;5.904;2023-07-29T00:30:58;18.30;99.90
64143;DHT22;50437;51.970;5.904;2023-07-29T00:33:24;18.10;99.90
64143;DHT22;50437;51.970;5.904;2023-07-29T00:35:50;18.10;99.90
64143;DHT22;50437;51.970;5.904;2023-07-29T00:38:16;18.10;99.90
64143;DHT22;50437;51.970;5.904;2023-07-29T00:40:42;18.10;99.90
64143;DHT22;50437;51.970;5.904;2023-07-29T00:43:08;18.10;99.90
64143;DHT22;50437;51.970;5.904;2023-07-29T00:45:35;18.00;99.90
64143;DHT22;50437;51.970;5.904;2023-07-29T00:48:02;18.00;99.90
64143;DHT22;50437;51.970;5.904;2023-07-29T00:50:29;18.10;99.90
64143;DHT22;50437;51.970;5.904;2023-07-29T00:52:59;18.10;99.90
64143;DHT22;50437;51.970;5.904;2023-07-29T00:55:26;18.00;99.90
64143;DHT22;50437;51.970;5.904;2023-07-29T00:57:52;17.90;99.90
64143;DHT22;50437;51.970;5.904;2023-07-29T01:00:20;17.90;99.90
64143;DHT22;50437;51.970;5.904;2023-07-29T01:02:46;17.90;99.90
64143;DHT22;50437;51.970;5.904;2023-07-29T01:05:13;17.80;99.90
64143;DHT22;50437;51.970;5.904;2023-07-29T01:07:55;17.80;99.90
64143;DHT22;50437;51.970;5.904;2023-07-29T01:10:27;17.80;99.90
64143;DHT22;50437;51.970;5.904;2023-07-29T01:13:04;18.00;99.90
64143;DHT22;50437;51.970;5.904;2023-07-29T01:18:29;18.20;99.90
64143;DHT22;50437;51.970;5.904;2023-07-29T01:21:00;18.10;99.90
64143;DHT22;50437;51.970;5.904;2023-07-29T01:23:31;18.10;99.90
64143;DHT22;50437;51.970;5.904;2023-07-29T01:25:58;18.20;99.90
64143;DHT22;50437;51.970;5.904;2023-07-29T01:28:24;18.30;99.90
64143;DHT22;50437;51.970;5.904;2023-07-29T01:30:52;18.40;99.90
64143;DHT22;50437;51.970;5.904;2023-07-29T01:33:25;18.40;99.90
64143;DHT22;50437;51.970;5.904;2023-07-29T01:35:54;18.30;99.90
64143;DHT22;50437;51.970;5.904;2023-07-29T01:38:32;18.30;99.90
64143;DHT22;50437;51.970;5.904;2023-07-29T01:41:04;18.30;99.90
64143;DHT22;50437;51.970;5.904;2023-07-29T01:43:32;18.40;99.90
64143;DHT22;50437;51.970;5.904;2023-07-29T01:45:58;18.40;99.90
64143;DHT22;50437;51.970;5.904;2023-07-29T01:48:24;18.30;99.90
64143;DHT22;50437;51.970;5.904;2023-07-29T01:50:50;18.30;99.90
64143;DHT22;50437;51.970;5.904;2023-07-29T01:53:16;18.40;99.90
64143;DHT22;50437;51.970;5.904;2023-07-29T01:55:43;18.40;99.90
64143;DHT22;50437;51.970;5.904;2023-07-29T01:58:11;18.40;99.90
64143;DHT22;50437;51.970;5.904;2023-07-29T02:00:38;18.40;99.90
64143;DHT22;50437;51.970;5.904;2023-07-29T02:03:04;18.40;99.90
64143;DHT22;50437;51.970;5.904;2023-07-29T02:05:30;18.40;99.90
64143;DHT22;50437;51.970;5.904;2023-07-29T02:07:56;18.50;99.90
64143;DHT22;50437;51.970;5.904;2023-07-29T02:10:22;18.40;99.90
64143;DHT22;50437;51.970;5.904;2023-07-29T02:12:48;18.50;99.90
64143;DHT22;50437;51.970;5.904;2023-07-29T02:15:14;18.50;99.90
64143;DHT22;50437;51.970;5.904;2023-07-29T02:17:41;18.40;99.90
64143;DHT22;50437;51.970;5.904;2023-07-29T02:20:07;18.40;99.90
64143;DHT22;50437;51.970;5.904;2023-07-29T02:22:34;18.40;99.90
64143;DHT22;50437;51.970;5.904;2023-07-29T02:25:00;18.50;99.90
64143;DHT22;50437;51.970;5.904;2023-07-29T02:27:26;18.40;99.90
64143;DHT22;50437;51.970;5.904;2023-07-29T02:29:54;18.50;99.90
64143;DHT22;50437;51.970;5.904;2023-07-29T02:32:20;18.40;99.90
64143;DHT22;50437;51.970;5.904;2023-07-29T02:34:46;18.30;99.90
64143;DHT22;50437;51.970;5.904;2023-07-29T02:37:12;18.40;99.90
64143;DHT22;50437;51.970;5.904;2023-07-29T02:39:38;18.50;99.90
64143;DHT22;50437;51.970;5.904;2023-07-29T02:42:04;18.50;99.90
64143;DHT22;50437;51.970;5.904;2023-07-29T02:44:30;18.50;99.90
64143;DHT22;50437;51.970;5.904;2023-07-29T02:46:56;18.50;99.90
64143;DHT22;50437;51.970;5.904;2023-07-29T02:49:22;18.40;99.90
64143;DHT22;50437;51.970;5.904;2023-07-29T02:51:49;18.40;99.90
64143;DHT22;50437;51.970;5.904;2023-07-29T02:54:15;18.50;99.90
64143;DHT22;50437;51.970;5.904;2023-07-29T02:56:41;18.40;99.90
64143;DHT22;50437;51.970;5.904;2023-07-29T02:59:07;18.40;99.90
64143;DHT22;50437;51.970;5.904;2023-07-29T03:01:33;18.30;99.90
64143;DHT22;50437;51.970;5.904;2023-07-29T03:03:59;18.40;99.90
64143;DHT22;50437;51.970;5.904;2023-07-29T03:06:25;18.20;99.90
64143;DHT22;50437;51.970;5.904;2023-07-29T03:08:51;18.30;99.90
64143;DHT22;50437;51.970;5.904;2023-07-29T03:11:17;18.30;99.90
64143;DHT22;50437;51.970;5.904;2023-07-29T03:13:44;18.20;99.90
64143;DHT22;50437;51.970;5.904;2023-07-29T03:16:10;18.20;99.90
64143;DHT22;50437;51.970;5.904;2023-07-29T03:18:38;18.20;99.90
64143;DHT22;50437;51.970;5.904;2023-07-29T03:21:04;18.20;99.90
64143;DHT22;50437;51.970;5.904;2023-07-29T03:23:31;18.10;99.90
64143;DHT22;50437;51.970;5.904;2023-07-29T03:25:58;18.10;99.90
64143;DHT22;50437;51.970;5.904;2023-07-29T03:28:28;18.10;99.90
64143;DHT22;50437;51.970;5.904;2023-07-29T03:30:55;18.20;99.90
64143;DHT22;50437;51.970;5.904;2023-07-29T03:33:21;18.10;99.90
64143;DHT22;50437;51.970;5.904;2023-07-29T03:35:47;18.10;99.90
64143;DHT22;50437;51.970;5.904;2023-07-29T03:38:13;18.10;99.90
64143;DHT22;50437;51.970;5.904;2023-07-29T03:40:40;18.00;99.90
64143;DHT22;50437;51.970;5.904;2023-07-29T03:43:06;17.90;99.90
64143;DHT22;50437;51.970;5.904;2023-07-29T03:45:32;17.90;99.90
64143;DHT22;50437;51.970;5.904;2023-07-29T03:47:58;17.90;99.90
64143;DHT22;50437;51.970;5.904;2023-07-29T03:50:24;17.90;99.90
64143;DHT22;50437;51.970;5.904;2023-07-29T03:52:50;17.90;99.90
64143;DHT22;50437;51.970;5.904;2023-07-29T03:55:16;17.90;99.90
64143;DHT22;50437;51.970;5.904;2023-07-29T03:57:43;17.90;99.90
64143;DHT22;50437;51.970;5.904;2023-07-29T04:00:08;17.80;99.90
64143;DHT22;50437;51.970;5.904;2023-07-29T04:02:41;17.80;99.90
64143;DHT22;50437;51.970;5.904;2023-07-29T04:05:07;17.80;99.90
64143;DHT22;50437;51.970;5.904;2023-07-29T04:07:34;17.70;99.90
64143;DHT22;50437;51.970;5.904;2023-07-29T04:10:01;17.70;99.90
64143;DHT22;50437;51.970;5.904;2023-07-29T04:12:27;17.60;99.90
64143;DHT22;50437;51.970;5.904;2023-07-29T04:14:53;17.70;99.90
64143;DHT22;50437;51.970;5.904;2023-07-29T04:17:19;17.60;99.90
64143;DHT22;50437;51.970;5.904;2023-07-29T04:19:44;17.70;99.90
64143;DHT22;50437;51.970;5.904;2023-07-29T04:22:10;17.70;99.90
64143;DHT22;50437;51.970;5.904;2023-07-29T04:24:37;17.60;99.90
64143;DHT22;50437;51.970;5.904;2023-07-29T04:27:03;17.50;99.90
64143;DHT22;50437;51.970;5.904;2023-07-29T04:29:29;17.50;99.90
64143;DHT22;50437;51.970;5.904;2023-07-29T04:31:55;17.50;99.90
64143;DHT22;50437;51.970;5.904;2023-07-29T04:34:21;17.40;99.90
64143;DHT22;50437;51.970;5.904;2023-07-29T04:36:47;17.40;99.90
64143;DHT22;50437;51.970;5.904;2023-07-29T04:39:14;17.50;99.90
64143;DHT22;50437;51.970;5.904;2023-07-29T04:41:40;17.50;99.90
64143;DHT22;50437;51.970;5.904;2023-07-29T04:44:06;17.40;99.90
64143;DHT22;50437;51.970;5.904;2023-07-29T04:46:33;17.50;99.90
64143;DHT22;50437;51.970;5.904;2023-07-29T04:48:59;17.40;99.90
64143;DHT22;50437;51.970;5.904;2023-07-29T04:51:25;17.50;99.90
64143;DHT22;50437;51.970;5.904;2023-07-29T04:53:51;17.50;99.90
64143;DHT22;50437;51.970;5.904;2023-07-29T04:56:17;17.50;99.90
64143;DHT22;50437;51.970;5.904;2023-07-29T04:58:44;17.50;99.90
64143;DHT22;50437;51.970;5.904;2023-07-29T05:01:10;17.50;99.90
64143;DHT22;50437;51.970;5.904;2023-07-29T05:03:36;17.50;99.90
64143;DHT22;50437;51.970;5.904;2023-07-29T05:06:04;17.50;99.90
64143;DHT22;50437;51.970;5.904;2023-07-29T05:08:30;17.60;99.90
64143;DHT22;50437;51.970;5.904;2023-07-29T05:10:56;17.60;99.90
64143;DHT22;50437;51.970;5.904;2023-07-29T05:13:22;17.60;99.90
64143;DHT22;50437;51.970;5.904;2023-07-29T05:15:49;17.60;99.90
64143;DHT22;50437;51.970;5.904;2023-07-29T05:18:15;17.70;99.90
64143;DHT22;50437;51.970;5.904;2023-07-29T05:20:41;17.70;99.90
64143;DHT22;50437;51.970;5.904;2023-07-29T05:23:07;17.80;99.90
64143;DHT22;50437;51.970;5.904;2023-07-29T05:25:33;17.80;99.90
64143;DHT22;50437;51.970;5.904;2023-07-29T05:28:00;17.80;99.90
64143;DHT22;50437;51.970;5.904;2023-07-29T05:30:27;17.70;99.90
64143;DHT22;50437;51.970;5.904;2023-07-29T05:32:56;17.80;99.90
64143;DHT22;50437;51.970;5.904;2023-07-29T05:35:23;17.80;99.90
64143;DHT22;50437;51.970;5.904;2023-07-29T05:37:49;17.80;99.90
64143;DHT22;50437;51.970;5.904;2023-07-29T05:40:15;17.90;99.90
64143;DHT22;50437;51.970;5.904;2023-07-29T05:42:41;17.80;99.90
64143;DHT22;50437;51.970;5.904;2023-07-29T05:45:07;17.80;99.90
64143;DHT22;50437;51.970;5.904;2023-07-29T05:47:33;17.80;99.90
64143;DHT22;50437;51.970;5.904;2023-07-29T05:49:59;17.80;99.90
64143;DHT22;50437;51.970;5.904;2023-07-29T05:52:33;17.80;99.90
64143;DHT22;50437;51.970;5.904;2023-07-29T05:54:59;17.70;99.90
64143;DHT22;50437;51.970;5.904;2023-07-29T05:57:26;17.80;99.90
64143;DHT22;50437;51.970;5.904;2023-07-29T05:59:52;17.80;99.90
64143;DHT22;50437;51.970;5.904;2023-07-29T06:02:18;17.90;99.90
64143;DHT22;50437;51.970;5.904;2023-07-29T06:04:44;18.00;99.90
64143;DHT22;50437;51.970;5.904;2023-07-29T06:07:10;18.00;99.90
64143;DHT22;50437;51.970;5.904;2023-07-29T06:09:36;17.90;99.90
64143;DHT22;50437;51.970;5.904;2023-07-29T06:12:02;18.00;99.90
64143;DHT22;50437;51.970;5.904;2023-07-29T06:14:28;18.10;99.90
64143;DHT22;50437;51.970;5.904;2023-07-29T06:16:54;18.10;99.90
64143;DHT22;50437;51.970;5.904;2023-07-29T06:19:20;18.20;99.90
64143;DHT22;50437;51.970;5.904;2023-07-29T06:21:46;18.30;99.90
64143;DHT22;50437;51.970;5.904;2023-07-29T06:24:12;18.40;99.90
64143;DHT22;50437;51.970;5.904;2023-07-29T06:26:38;18.50;99.90
64143;DHT22;50437;51.970;5.904;2023-07-29T06:29:04;18.60;99.90
64143;DHT22;50437;51.970;5.904;2023-07-29T06:31:30;18.60;99.90
64143;DHT22;50437;51.970;5.904;2023-07-29T06:33:58;18.80;99.90
64143;DHT22;50437;51.970;5.904;2023-07-29T06:36:24;19.00;99.90
64143;DHT22;50437;51.970;5.904;2023-07-29T06:38:50;19.00;99.90
64143;DHT22;50437;51.970;5.904;2023-07-29T06:41:16;19.20;99.90
64143;DHT22;50437;51.970;5.904;2023-07-29T06:43:42;19.20;99.90
64143;DHT22;50437;51.970;5.904;2023-07-29T06:46:08;18.90;99.90
64143;DHT22;50437;51.970;5.904;2023-07-29T06:48:34;18.90;99.90
64143;DHT22;50437;51.970;5.904;2023-07-29T06:51:03;19.00;99.90
64143;DHT22;50437;51.970;5.904;2023-07-29T06:53:29;19.00;99.90
64143;DHT22;50437;51.970;5.904;2023-07-29T06:55:55;19.10;99.90
64143;DHT22;50437;51.970;5.904;2023-07-29T06:58:21;19.20;99.90
64143;DHT22;50437;51.970;5.904;2023-07-29T07:00:47;19.40;99.90
64143;DHT22;50437;51.970;5.904;2023-07-29T07:03:13;19.50;99.90
64143;DHT22;50437;51.970;5.904;2023-07-29T07:05:39;19.50;99.90
64143;DHT22;50437;51.970;5.904;2023-07-29T07:08:05;19.50;99.90
64143;DHT22;50437;51.970;5.904;2023-07-29T07:10:31;20.10;99.90
64143;DHT22;50437;51.970;5.904;2023-07-29T07:12:57;21.70;99.90
64143;DHT22;50437;51.970;5.904;2023-07-29T07:15:23;22.70;99.90
64143;DHT22;50437;51.970;5.904;2023-07-29T07:17:49;22.40;99.90
64143;DHT22;50437;51.970;5.904;2023-07-29T07:20:16;22.00;99.90
64143;DHT22;50437;51.970;5.904;2023-07-29T07:22:42;21.30;99.90
64143;DHT22;50437;51.970;5.904;2023-07-29T07:25:08;21.10;99.90
64143;DHT22;50437;51.970;5.904;2023-07-29T07:27:34;21.60;99.90
64143;DHT22;50437;51.970;5.904;2023-07-29T07:30:00;20.50;99.90
64143;DHT22;50437;51.970;5.904;2023-07-29T07:32:26;20.40;99.90
64143;DHT22;50437;51.970;5.904;2023-07-29T07:34:52;20.20;99.90
64143;DHT22;50437;51.970;5.904;2023-07-29T07:37:18;21.00;99.90
64143;DHT22;50437;51.970;5.904;2023-07-29T07:39:44;21.10;99.90
64143;DHT22;50437;51.970;5.904;2023-07-29T07:42:10;21.90;99.90
64143;DHT22;50437;51.970;5.904;2023-07-29T07:44:36;22.70;99.90
64143;DHT22;50437;51.970;5.904;2023-07-29T07:47:02;21.60;99.90
64143;DHT22;50437;51.970;5.904;2023-07-29T07:49:28;21.00;99.90
64143;DHT22;50437;51.970;5.904;2023-07-29T07:51:54;20.70;99.90
64143;DHT22;50437;51.970;5.904;2023-07-29T07:54:19;20.80;99.90
64143;DHT22;50437;51.970;5.904;2023-07-29T07:56:45;20.30;99.90
64143;DHT22;50437;51.970;5.904;2023-07-29T07:59:11;20.70;99.90
64143;DHT22;50437;51.970;5.904;2023-07-29T08:01:38;21.90;99.90
64143;DHT22;50437;51.970;5.904;2023-07-29T08:04:04;21.40;99.90
64143;DHT22;50437;51.970;5.904;2023-07-29T08:06:31;21.60;99.90
64143;DHT22;50437;51.970;5.904;2023-07-29T08:08:57;21.20;99.90
64143;DHT22;50437;51.970;5.904;2023-07-29T08:11:23;20.60;99.90
64143;DHT22;50437;51.970;5.904;2023-07-29T08:13:49;20.10;99.90
64143;DHT22;50437;51.970;5.904;2023-07-29T08:16:15;20.00;99.90
64143;DHT22;50437;51.970;5.904;2023-07-29T08:18:41;20.00;99.90
64143;DHT22;50437;51.970;5.904;2023-07-29T08:21:07;20.10;99.90
64143;DHT22;50437;51.970;5.904;2023-07-29T08:23:33;20.10;99.90
64143;DHT22;50437;51.970;5.904;2023-07-29T08:26:01;20.30;99.90
64143;DHT22;50437;51.970;5.904;2023-07-29T08:28:28;20.40;99.90
64143;DHT22;50437;51.970;5.904;2023-07-29T08:30:54;20.70;99.90
64143;DHT22;50437;51.970;5.904;2023-07-29T08:33:20;20.50;99.90
64143;DHT22;50437;51.970;5.904;2023-07-29T08:35:46;20.30;99.90
64143;DHT22;50437;51.970;5.904;2023-07-29T08:38:12;20.20;99.90
64143;DHT22;50437;51.970;5.904;2023-07-29T08:40:42;20.20;99.90
64143;DHT22;50437;51.970;5.904;2023-07-29T08:43:08;20.10;99.90
64143;DHT22;50437;51.970;5.904;2023-07-29T08:45:35;20.00;99.90
64143;DHT22;50437;51.970;5.904;2023-07-29T08:48:02;19.90;99.90
64143;DHT22;50437;51.970;5.904;2023-07-29T08:50:34;20.00;99.90
64143;DHT22;50437;51.970;5.904;2023-07-29T08:53:01;20.30;99.90
64143;DHT22;50437;51.970;5.904;2023-07-29T08:55:28;21.10;99.90
64143;DHT22;50437;51.970;5.904;2023-07-29T08:57:54;22.10;99.90
64143;DHT22;50437;51.970;5.904;2023-07-29T09:00:21;22.50;99.90
64143;DHT22;50437;51.970;5.904;2023-07-29T09:02:47;22.70;99.90
64143;DHT22;50437;51.970;5.904;2023-07-29T09:05:13;22.80;99.90
64143;DHT22;50437;51.970;5.904;2023-07-29T09:07:39;21.90;99.90
64143;DHT22;50437;51.970;5.904;2023-07-29T09:10:08;21.70;99.90
64143;DHT22;50437;51.970;5.904;2023-07-29T09:12:34;21.50;99.90
64143;DHT22;50437;51.970;5.904;2023-07-29T09:15:00;21.10;99.90
64143;DHT22;50437;51.970;5.904;2023-07-29T09:17:26;20.90;99.90
64143;DHT22;50437;51.970;5.904;2023-07-29T09:19:56;20.80;99.90
64143;DHT22;50437;51.970;5.904;2023-07-29T09:22:22;20.90;99.90
64143;DHT22;50437;51.970;5.904;2023-07-29T09:24:48;20.90;99.90
64143;DHT22;50437;51.970;5.904;2023-07-29T09:27:24;21.10;99.90
64143;DHT22;50437;51.970;5.904;2023-07-29T09:29:50;21.00;99.90
64143;DHT22;50437;51.970;5.904;2023-07-29T09:32:17;21.20;99.90
64143;DHT22;50437;51.970;5.904;2023-07-29T09:34:43;21.60;99.90
64143;DHT22;50437;51.970;5.904;2023-07-29T09:37:09;21.80;99.90
64143;DHT22;50437;51.970;5.904;2023-07-29T09:39:35;21.90;99.90
64143;DHT22;50437;51.970;5.904;2023-07-29T09:42:01;21.90;99.90
64143;DHT22;50437;51.970;5.904;2023-07-29T09:44:28;22.10;99.90
64143;DHT22;50437;51.970;5.904;2023-07-29T09:47:01;22.00;99.90
64143;DHT22;50437;51.970;5.904;2023-07-29T09:49:27;21.60;99.90
64143;DHT22;50437;51.970;5.904;2023-07-29T09:51:55;21.50;99.90
64143;DHT22;50437;51.970;5.904;2023-07-29T09:54:21;21.10;99.90
64143;DHT22;50437;51.970;5.904;2023-07-29T09:56:47;21.10;99.90
64143;DHT22;50437;51.970;5.904;2023-07-29T09:59:13;21.60;99.90
64143;DHT22;50437;51.970;5.904;2023-07-29T10:01:44;22.10;99.90
64143;DHT22;50437;51.970;5.904;2023-07-29T10:04:10;21.80;99.90
64143;DHT22;50437;51.970;5.904;2023-07-29T10:06:36;21.80;99.90
64143;DHT22;50437;51.970;5.904;2023-07-29T10:09:03;23.00;99.90
64143;DHT22;50437;51.970;5.904;2023-07-29T10:11:29;23.20;99.90
64143;DHT22;50437;51.970;5.904;2023-07-29T10:13:55;23.80;99.90
64143;DHT22;50437;51.970;5.904;2023-07-29T10:16:21;25.30;99.90
64143;DHT22;50437;51.970;5.904;2023-07-29T10:18:48;26.80;99.90
64143;DHT22;50437;51.970;5.904;2023-07-29T10:21:15;27.00;99.90
64143;DHT22;50437;51.970;5.904;2023-07-29T10:23:42;26.90;99.90
64143;DHT22;50437;51.970;5.904;2023-07-29T10:26:10;26.20;99.90
64143;DHT22;50437;51.970;5.904;2023-07-29T10:28:37;27.20;99.90
64143;DHT22;50437;51.970;5.904;2023-07-29T10:31:05;26.30;99.90
64143;DHT22;50437;51.970;5.904;2023-07-29T10:33:32;25.20;99.90
64143;DHT22;50437;51.970;5.904;2023-07-29T10:35:58;24.30;99.90
64143;DHT22;50437;51.970;5.904;2023-07-29T10:38:24;24.10;99.90
64143;DHT22;50437;51.970;5.904;2023-07-29T10:40:59;23.50;99.90
64143;DHT22;50437;51.970;5.904;2023-07-29T10:43:27;23.50;99.90
64143;DHT22;50437;51.970;5.904;2023-07-29T10:45:53;23.50;99.90
64143;DHT22;50437;51.970;5.904;2023-07-29T10:53:42;23.60;99.90
64143;DHT22;50437;51.970;5.904;2023-07-29T10:56:08;23.20;99.90
64143;DHT22;50437;51.970;5.904;2023-07-29T10:58:34;23.10;99.90
64143;DHT22;50437;51.970;5.904;2023-07-29T11:01:00;23.40;99.90
64143;DHT22;50437;51.970;5.904;2023-07-29T11:03:27;23.50;99.90
64143;DHT22;50437;51.970;5.904;2023-07-29T11:05:54;23.30;99.90
64143;DHT22;50437;51.970;5.904;2023-07-29T11:08:21;23.30;99.90
64143;DHT22;50437;51.970;5.904;2023-07-29T11:13:43;23.30;99.90
64143;DHT22;50437;51.970;5.904;2023-07-29T11:16:09;23.60;99.90
64143;DHT22;50437;51.970;5.904;2023-07-29T11:18:36;23.50;99.90
64143;DHT22;50437;51.970;5.904;2023-07-29T11:21:02;23.40;99.90
64143;DHT22;50437;51.970;5.904;2023-07-29T11:23:33;22.90;99.90
64143;DHT22;50437;51.970;5.904;2023-07-29T11:25:59;22.80;99.90
64143;DHT22;50437;51.970;5.904;2023-07-29T11:28:26;22.80;99.90
64143;DHT22;50437;51.970;5.904;2023-07-29T11:30:52;22.80;99.90
64143;DHT22;50437;51.970;5.904;2023-07-29T11:33:23;22.70;99.90
64143;DHT22;50437;51.970;5.904;2023-07-29T11:35:49;22.50;99.90
64143;DHT22;50437;51.970;5.904;2023-07-29T11:38:16;22.50;99.90
64143;DHT22;50437;51.970;5.904;2023-07-29T11:40:42;22.00;99.90
64143;DHT22;50437;51.970;5.904;2023-07-29T11:43:08;22.10;99.90
64143;DHT22;50437;51.970;5.904;2023-07-29T11:45:34;22.00;99.90
64143;DHT22;50437;51.970;5.904;2023-07-29T11:48:01;22.00;99.90
64143;DHT22;50437;51.970;5.904;2023-07-29T11:50:26;21.80;99.90
64143;DHT22;50437;51.970;5.904;2023-07-29T11:52:52;21.50;99.90
64143;DHT22;50437;51.970;5.904;2023-07-29T11:55:19;21.30;99.90
64143;DHT22;50437;51.970;5.904;2023-07-29T11:57:45;21.10;99.90
64143;DHT22;50437;51.970;5.904;2023-07-29T12:00:16;20.50;99.90
64143;DHT22;50437;51.970;5.904;2023-07-29T12:02:44;20.20;99.90
64143;DHT22;50437;51.970;5.904;2023-07-29T12:05:11;19.90;99.90
64143;DHT22;50437;51.970;5.904;2023-07-29T12:07:41;19.70;99.90
64143;DHT22;50437;51.970;5.904;2023-07-29T12:10:07;19.70;99.90
64143;DHT22;50437;51.970;5.904;2023-07-29T12:12:37;19.70;99.90
64143;DHT22;50437;51.970;5.904;2023-07-29T12:15:03;19.60;99.90
64143;DHT22;50437;51.970;5.904;2023-07-29T12:17:29;19.50;99.90
64143;DHT22;50437;51.970;5.904;2023-07-29T12:19:55;19.60;99.90
64143;DHT22;50437;51.970;5.904;2023-07-29T12:22:21;19.50;99.90
64143;DHT22;50437;51.970;5.904;2023-07-29T12:24:49;19.50;99.90
64143;DHT22;50437;51.970;5.904;2023-07-29T12:27:16;19.50;99.90
64143;DHT22;50437;51.970;5.904;2023-07-29T12:29:42;19.60;99.90
64143;DHT22;50437;51.970;5.904;2023-07-29T12:32:09;19.80;99.90
64143;DHT22;50437;51.970;5.904;2023-07-29T12:34:36;19.90;99.90
64143;DHT22;50437;51.970;5.904;2023-07-29T12:37:03;20.00;99.90
64143;DHT22;50437;51.970;5.904;2023-07-29T12:39:30;19.90;99.90
64143;DHT22;50437;51.970;5.904;2023-07-29T12:41:57;20.10;99.90
64143;DHT22;50437;51.970;5.904;2023-07-29T12:44:24;19.90;99.90
64143;DHT22;50437;51.970;5.904;2023-07-29T12:46:51;19.90;99.90
64143;DHT22;50437;51.970;5.904;2023-07-29T12:49:17;20.00;99.90
64143;DHT22;50437;51.970;5.904;2023-07-29T12:51:45;20.50;99.90
64143;DHT22;50437;51.970;5.904;2023-07-29T12:54:11;20.80;99.90
64143;DHT22;50437;51.970;5.904;2023-07-29T12:56:37;20.80;99.90
64143;DHT22;50437;51.970;5.904;2023-07-29T12:59:03;20.80;99.90
64143;DHT22;50437;51.970;5.904;2023-07-29T13:01:29;20.90;99.90
64143;DHT22;50437;51.970;5.904;2023-07-29T13:03:55;21.00;99.90
64143;DHT22;50437;51.970;5.904;2023-07-29T13:06:22;21.10;99.90
64143;DHT22;50437;51.970;5.904;2023-07-29T13:08:48;21.40;99.90
64143;DHT22;50437;51.970;5.904;2023-07-29T13:11:14;21.70;99.90
64143;DHT22;50437;51.970;5.904;2023-07-29T13:13:40;21.90;99.90
64143;DHT22;50437;51.970;5.904;2023-07-29T13:16:06;22.00;99.90
64143;DHT22;50437;51.970;5.904;2023-07-29T13:18:32;22.20;99.90
64143;DHT22;50437;51.970;5.904;2023-07-29T13:20:58;21.90;99.90
64143;DHT22;50437;51.970;5.904;2023-07-29T13:23:26;22.00;99.90
64143;DHT22;50437;51.970;5.904;2023-07-29T13:25:52;21.80;99.90
64143;DHT22;50437;51.970;5.904;2023-07-29T13:28:18;21.80;99.90
64143;DHT22;50437;51.970;5.904;2023-07-29T13:30:45;21.70;99.90
64143;DHT22;50437;51.970;5.904;2023-07-29T13:33:11;21.80;99.90
64143;DHT22;50437;51.970;5.904;2023-07-29T13:35:36;21.70;99.90
64143;DHT22;50437;51.970;5.904;2023-07-29T13:38:03;21.60;99.90
64143;DHT22;50437;51.970;5.904;2023-07-29T13:40:29;21.70;99.90
64143;DHT22;50437;51.970;5.904;2023-07-29T13:42:55;21.90;99.90
64143;DHT22;50437;51.970;5.904;2023-07-29T13:45:21;22.10;99.90
64143;DHT22;50437;51.970;5.904;2023-07-29T13:47:48;22.40;99.90
64143;DHT22;50437;51.970;5.904;2023-07-29T13:50:14;22.60;99.90
64143;DHT22;50437;51.970;5.904;2023-07-29T13:52:40;22.70;99.90
64143;DHT22;50437;51.970;5.904;2023-07-29T13:55:06;22.30;99.90
64143;DHT22;50437;51.970;5.904;2023-07-29T13:57:32;21.80;99.90
64143;DHT22;50437;51.970;5.904;2023-07-29T13:59:58;22.00;99.90
64143;DHT22;50437;51.970;5.904;2023-07-29T14:02:24;22.40;99.90
64143;DHT22;50437;51.970;5.904;2023-07-29T14:04:53;22.60;99.90
64143;DHT22;50437;51.970;5.904;2023-07-29T14:07:19;22.60;99.90
64143;DHT22;50437;51.970;5.904;2023-07-29T14:09:45;23.20;99.90
64143;DHT22;50437;51.970;5.904;2023-07-29T14:12:11;23.30;99.90
64143;DHT22;50437;51.970;5.904;2023-07-29T14:14:43;23.10;99.90
64143;DHT22;50437;51.970;5.904;2023-07-29T14:17:09;22.80;99.90
64143;DHT22;50437;51.970;5.904;2023-07-29T14:19:36;22.60;99.90
64143;DHT22;50437;51.970;5.904;2023-07-29T14:22:02;22.70;99.90
64143;DHT22;50437;51.970;5.904;2023-07-29T14:24:28;22.70;99.90
64143;DHT22;50437;51.970;5.904;2023-07-29T14:26:54;22.70;99.90
64143;DHT22;50437;51.970;5.904;2023-07-29T14:29:20;23.20;99.90
64143;DHT22;50437;51.970;5.904;2023-07-29T14:31:46;23.60;99.90
64143;DHT22;50437;51.970;5.904;2023-07-29T14:34:12;23.70;99.90
64143;DHT22;50437;51.970;5.904;2023-07-29T14:36:38;23.50;99.90
64143;DHT22;50437;51.970;5.904;2023-07-29T14:39:04;23.30;99.90
64143;DHT22;50437;51.970;5.904;2023-07-29T14:41:30;23.10;99.90
64143;DHT22;50437;51.970;5.904;2023-07-29T14:43:56;23.10;99.90
64143;DHT22;50437;51.970;5.904;2023-07-29T14:46:22;23.20;99.90
64143;DHT22;50437;51.970;5.904;2023-07-29T14:48:48;23.40;99.90
64143;DHT22;50437;51.970;5.904;2023-07-29T14:51:14;23.70;99.90
64143;DHT22;50437;51.970;5.904;2023-07-29T14:53:40;23.70;99.90
64143;DHT22;50437;51.970;5.904;2023-07-29T14:56:06;23.30;99.90
64143;DHT22;50437;51.970;5.904;2023-07-29T14:58:36;23.10;99.90
64143;DHT22;50437;51.970;5.904;2023-07-29T15:01:02;23.20;99.90
64143;DHT22;50437;51.970;5.904;2023-07-29T15:03:28;23.80;99.90
64143;DHT22;50437;51.970;5.904;2023-07-29T15:05:54;24.10;99.90
64143;DHT22;50437;51.970;5.904;2023-07-29T15:08:20;23.60;99.90
64143;DHT22;50437;51.970;5.904;2023-07-29T15:10:46;23.60;99.90
64143;DHT22;50437;51.970;5.904;2023-07-29T15:13:12;23.70;99.90
64143;DHT22;50437;51.970;5.904;2023-07-29T15:15:42;23.90;99.90
64143;DHT22;50437;51.970;5.904;2023-07-29T15:18:08;23.80;99.90
64143;DHT22;50437;51.970;5.904;2023-07-29T15:20:34;23.30;99.90
64143;DHT22;50437;51.970;5.904;2023-07-29T15:23:00;22.90;99.90
64143;DHT22;50437;51.970;5.904;2023-07-29T15:25:26;22.80;99.90
64143;DHT22;50437;51.970;5.904;2023-07-29T15:27:52;22.80;99.90
64143;DHT22;50437;51.970;5.904;2023-07-29T15:30:18;22.90;99.90
64143;DHT22;50437;51.970;5.904;2023-07-29T15:32:44;23.00;99.90
64143;DHT22;50437;51.970;5.904;2023-07-29T15:35:10;23.10;99.90
64143;DHT22;50437;51.970;5.904;2023-07-29T15:37:36;23.20;99.90